Time;durP1;ratioP1;P1;durP2;ratioP2;P2;SDS_P1;SDS_P2;PMS_P1;PMS_P2;Temp;Humidity;BMP_temperature;BMP_pressure;BME280_temperature;BME280_humidity;BME280_pressure;Samples;Min_cycle;Max_cycle;Signal;HPM_P1;HPM_P2
2022/05/16 04:04:11;;;;;;;8.17;5.57;;;11.60;99.90;;;;;;5299895;23;20245;-75
2022/05/16 04:06:40;;;;;;;8.07;5.40;;;11.60;99.90;;;;;;4873437;29;20278;-77
2022/05/16 04:09:08;;;;;;;7.30;5.63;;;11.70;99.90;;;;;;4870189;29;20294;-77
2022/05/16 04:11:36;;;;;;;6.87;5.40;;;11.70;99.90;;;;;;4881604;29;20309;-75
2022/05/16 04:14:04;;;;;;;5.93;4.83;;;11.80;99.90;;;;;;4880724;29;20628;-77
2022/05/16 04:16:32;;;;;;;8.80;5.60;;;11.80;99.90;;;;;;4880534;29;20702;-75
2022/05/16 04:19:00;;;;;;;7.50;5.07;;;11.90;99.90;;;;;;4880163;29;20217;-77
2022/05/16 04:21:30;;;;;;;6.57;5.00;;;12.00;99.90;;;;;;4881184;29;20217;-77
2022/05/16 04:23:58;;;;;;;7.03;4.90;;;12.00;99.90;;;;;;4882014;29;20242;-75
2022/05/16 04:26:27;;;;;;;6.53;4.87;;;12.00;99.90;;;;;;4883605;29;20232;-77
2022/05/16 04:28:55;;;;;;;7.10;5.00;;;12.10;99.90;;;;;;4883144;29;20246;-74
2022/05/16 04:31:23;;;;;;;7.70;5.27;;;12.10;99.90;;;;;;4881650;29;20744;-78
2022/05/16 04:33:51;;;;;;;9.03;5.13;;;12.20;99.90;;;;;;4881859;29;20214;-75
2022/05/16 04:36:19;;;;;;;9.37;5.10;;;12.20;99.90;;;;;;4880922;29;20226;-77
2022/05/16 04:38:48;;;;;;;6.10;4.80;;;12.20;99.90;;;;;;4880944;29;20297;-77
2022/05/16 04:44:07;;;;;;;8.37;4.90;;;12.40;99.90;;;;;;4863073;29;20218;-74
2022/05/16 04:46:35;;;;;;;7.83;4.60;;;12.40;99.90;;;;;;4859503;29;20215;-76
2022/05/16 04:49:03;;;;;;;6.73;5.00;;;12.50;99.90;;;;;;4844047;29;20247;-78
2022/05/16 04:51:32;;;;;;;8.63;5.30;;;12.60;99.90;;;;;;4860467;29;20218;-77
2022/05/16 04:54:02;;;;;;;7.40;5.23;;;12.60;99.90;;;;;;4880599;29;20245;-76
2022/05/16 04:56:30;;;;;;;5.37;4.73;;;12.70;99.90;;;;;;4879977;29;20233;-77
2022/05/16 04:58:58;;;;;;;7.67;4.87;;;12.80;99.90;;;;;;4876747;29;20208;-76
2022/05/16 05:01:26;;;;;;;6.57;4.77;;;12.80;99.90;;;;;;4881608;29;20240;-77
2022/05/16 05:03:54;;;;;;;9.57;5.00;;;12.90;99.90;;;;;;4880130;29;20222;-76
2022/05/16 05:06:22;;;;;;;6.13;5.23;;;12.90;99.90;;;;;;4879939;29;20575;-75
2022/05/16 05:08:51;;;;;;;8.07;5.10;;;13.00;99.90;;;;;;4879758;29;20249;-77
2022/05/16 05:16:52;;;;;;;7.87;5.07;;;13.10;99.90;;;;;;4862545;29;20245;-76
2022/05/16 05:19:20;;;;;;;5.97;4.90;;;13.20;99.90;;;;;;4842827;29;20215;-77
2022/05/16 05:21:48;;;;;;;7.43;4.77;;;13.40;99.90;;;;;;4841903;29;20227;-78
2022/05/16 05:24:16;;;;;;;6.83;4.77;;;13.50;99.90;;;;;;4842907;29;20307;-76
2022/05/16 05:26:46;;;;;;;9.27;5.23;;;13.70;99.90;;;;;;4843552;29;20235;-77
2022/05/16 05:29:15;;;;;;;6.40;4.93;;;13.80;99.90;;;;;;4849577;29;20251;-77
2022/05/16 05:31:44;;;;;;;5.70;4.77;;;14.10;99.90;;;;;;4847709;29;20866;-76
2022/05/16 05:34:12;;;;;;;5.67;4.90;;;14.20;99.90;;;;;;4843335;29;20837;-77
2022/05/16 05:36:41;;;;;;;8.33;4.70;;;14.40;99.90;;;;;;4843310;29;20740;-77
2022/05/16 05:39:12;;;;;;;7.17;4.77;;;14.40;99.90;;;;;;4843030;29;20255;-75
2022/05/16 05:41:41;;;;;;;6.10;4.50;;;14.70;99.90;;;;;;4842889;29;20232;-77
2022/05/16 05:44:11;;;;;;;5.10;4.60;;;14.90;99.90;;;;;;4842981;29;20260;-79
2022/05/16 05:46:41;;;;;;;5.00;4.10;;;15.00;99.90;;;;;;4843049;29;20231;-76
2022/05/16 05:49:11;;;;;;;7.50;4.90;;;15.40;99.90;;;;;;4842427;29;20216;-76
2022/05/16 05:51:40;;;;;;;7.57;4.10;;;15.80;99.90;;;;;;4847364;29;20681;-76
2022/05/16 05:54:08;;;;;;;8.37;4.43;;;16.40;99.90;;;;;;4842840;29;20222;-76
2022/05/16 05:56:37;;;;;;;7.50;4.27;;;17.20;99.90;;;;;;4852942;29;20322;-77
2022/05/16 05:59:05;;;;;;;7.10;4.40;;;17.60;99.90;;;;;;4860730;29;20673;-76
2022/05/16 06:01:34;;;;;;;7.67;4.33;;;18.00;99.90;;;;;;4860042;29;20892;-78
2022/05/16 06:04:03;;;;;;;9.47;4.90;;;18.10;99.90;;;;;;4846433;29;20718;-76
2022/05/16 06:06:31;;;;;;;9.43;4.93;;;17.90;99.90;;;;;;4842137;29;20212;-77
2022/05/16 06:08:59;;;;;;;6.37;4.20;;;17.70;99.90;;;;;;4842051;29;20265;-74
2022/05/16 06:11:28;;;;;;;9.27;4.47;;;17.40;99.90;;;;;;4841996;29;20244;-76
2022/05/16 06:13:58;;;;;;;6.57;4.03;;;17.30;99.90;;;;;;4842443;29;20216;-78
2022/05/16 06:16:26;;;;;;;6.80;4.10;;;17.60;99.90;;;;;;4842240;29;20291;-76
2022/05/16 06:18:55;;;;;;;5.83;4.27;;;18.20;99.90;;;;;;4841802;29;20219;-77
2022/05/16 06:21:24;;;;;;;8.67;4.37;;;18.40;99.90;;;;;;4842168;29;20243;-78
2022/05/16 06:23:52;;;;;;;8.90;4.90;;;18.50;99.90;;;;;;4842440;29;20791;-77
2022/05/16 06:26:21;;;;;;;6.93;4.57;;;18.30;99.90;;;;;;4842346;29;20242;-78
2022/05/16 06:28:49;;;;;;;9.17;4.40;;;18.20;99.90;;;;;;4842270;29;20295;-78
2022/05/16 06:31:17;;;;;;;8.07;4.33;;;18.00;99.90;;;;;;4842260;29;20300;-77
2022/05/16 06:33:47;;;;;;;16.57;5.43;;;18.00;99.90;;;;;;4842462;29;20302;-76
2022/05/16 06:36:17;;;;;;;8.00;4.40;;;18.40;99.90;;;;;;4842113;29;20318;-77
2022/05/16 06:38:45;;;;;;;7.73;4.47;;;19.20;99.90;;;;;;4841949;29;20307;-79
2022/05/16 06:41:13;;;;;;;8.07;4.00;;;20.60;99.90;;;;;;4860284;29;20302;-79
2022/05/16 06:43:41;;;;;;;5.97;4.03;;;21.70;99.90;;;;;;4859925;29;20697;-79
2022/05/16 06:46:10;;;;;;;6.67;4.37;;;22.30;99.90;;;;;;4854478;29;20237;-77
2022/05/16 06:48:38;;;;;;;7.07;4.00;;;21.80;99.90;;;;;;4847496;29;20706;-75
2022/05/16 06:51:06;;;;;;;6.50;4.30;;;21.10;99.90;;;;;;4841624;29;20746;-75
2022/05/16 06:53:35;;;;;;;10.90;4.83;;;20.90;99.90;;;;;;4858863;29;20767;-77
2022/05/16 06:56:04;;;;;;;7.53;4.20;;;21.20;99.90;;;;;;4859496;29;20249;-75
2022/05/16 06:58:32;;;;;;;7.50;3.90;;;21.20;99.90;;;;;;4859178;29;20248;-76
2022/05/16 07:01:01;;;;;;;8.37;4.50;;;20.90;99.90;;;;;;4859298;29;20288;-77
2022/05/16 07:03:29;;;;;;;6.57;4.30;;;20.40;99.90;;;;;;4857809;29;20249;-74
2022/05/16 07:05:57;;;;;;;5.63;3.93;;;19.90;99.90;;;;;;4841114;29;20291;-78
2022/05/16 07:08:25;;;;;;;4.73;4.10;;;19.80;99.90;;;;;;4841078;29;20276;-76
2022/05/16 07:10:55;;;;;;;5.97;4.20;;;19.30;99.90;;;;;;4840635;29;20649;-75
2022/05/16 07:13:24;;;;;;;8.70;4.70;;;19.20;99.90;;;;;;4840620;29;20314;-76
2022/05/16 07:15:52;;;;;;;7.70;4.00;;;19.20;99.90;;;;;;4845741;29;20265;-77
2022/05/16 07:18:21;;;;;;;8.53;4.00;;;19.10;99.90;;;;;;4847364;29;20219;-77
2022/05/16 07:20:49;;;;;;;7.33;4.30;;;19.20;99.90;;;;;;4847217;29;20211;-77
2022/05/16 07:23:19;;;;;;;7.37;4.20;;;19.30;99.90;;;;;;4847249;29;20406;-77
2022/05/16 07:28:35;;;;;;;6.93;4.70;;;19.50;99.90;;;;;;4847223;29;20200;-77
2022/05/16 07:31:04;;;;;;;6.93;4.37;;;19.60;99.90;;;;;;4851464;29;20219;-74
2022/05/16 07:33:34;;;;;;;5.40;4.30;;;19.70;99.90;;;;;;4849742;29;20272;-75
2022/05/16 07:36:02;;;;;;;5.67;4.20;;;20.10;99.90;;;;;;4849022;29;20215;-76
2022/05/16 07:38:30;;;;;;;6.27;4.40;;;20.20;99.90;;;;;;4848647;29;20216;-77
2022/05/16 07:40:59;;;;;;;5.67;4.10;;;20.40;99.90;;;;;;4847840;29;20288;-75
2022/05/16 07:43:27;;;;;;;6.63;4.13;;;20.20;99.90;;;;;;4848671;29;20272;-76
2022/05/16 07:45:57;;;;;;;7.93;4.33;;;20.20;99.90;;;;;;4848029;29;20689;-78
2022/05/16 07:48:25;;;;;;;6.47;4.20;;;20.20;99.90;;;;;;4848256;29;20219;-78
2022/05/16 07:50:53;;;;;;;7.40;4.47;;;20.20;99.90;;;;;;4848832;29;20211;-77
2022/05/16 07:53:22;;;;;;;6.27;5.00;;;20.40;99.90;;;;;;4857961;29;20218;-76
2022/05/16 07:55:53;;;;;;;7.63;5.13;;;20.80;99.90;;;;;;4871963;29;20241;-74
2022/05/16 07:58:23;;;;;;;7.63;5.00;;;21.10;99.90;;;;;;4871841;29;20239;-76
2022/05/16 08:00:55;;;;;;;7.73;4.80;;;21.40;99.90;;;;;;4869669;29;20294;-77
2022/05/16 08:03:27;;;;;;;6.80;4.67;;;22.20;99.90;;;;;;4869535;29;20279;-74
2022/05/16 08:05:56;;;;;;;6.93;4.30;;;23.50;99.90;;;;;;4869600;29;20230;-79
2022/05/16 08:11:12;;;;;;;15.80;8.53;;;24.40;99.90;;;;;;4867542;29;20231;-77
2022/05/16 08:13:42;;;;;;;6.33;4.40;;;24.70;99.90;;;;;;4866202;29;20251;-76
2022/05/16 08:16:11;;;;;;;15.80;6.43;;;24.80;99.90;;;;;;4864565;29;20291;-79
2022/05/16 08:18:42;;;;;;;20.07;8.20;;;24.80;99.90;;;;;;4866320;29;20249;-77
2022/05/16 08:21:13;;;;;;;9.90;4.97;;;25.10;99.90;;;;;;4865236;29;20199;-76
2022/05/16 08:23:42;;;;;;;13.97;7.17;;;25.30;99.90;;;;;;4865521;29;20203;-77
2022/05/16 08:26:10;;;;;;;7.17;4.67;;;25.50;99.70;;;;;;4864589;29;20677;-78
2022/05/16 08:28:40;;;;;;;7.47;4.70;;;25.60;99.90;;;;;;4862362;29;20311;-77
2022/05/16 08:31:09;;;;;;;6.32;4.65;;;25.60;99.90;;;;;;4862352;29;20303;-77
2022/05/16 08:33:39;;;;;;;91.55;42.35;;;26.20;99.90;;;;;;4862539;29;20219;-78
2022/05/16 08:41:51;;;;;;;7.15;3.97;;;28.50;96.50;;;;;;4861584;29;20314;-77
2022/05/16 08:44:23;;;;;;;8.10;4.00;;;27.90;97.80;;;;;;4861599;29;20748;-80
2022/05/16 08:47:01;;;;;;;7.20;3.90;;;27.30;98.10;;;;;;4856270;29;20668;-76
2022/05/16 08:49:34;;;;;;;9.27;4.05;;;27.40;97.40;;;;;;4861673;29;20294;-76
2022/05/16 08:52:10;;;;;;;5.93;3.83;;;27.20;98.00;;;;;;4861596;29;20247;-74
2022/05/16 08:54:45;;;;;;;7.05;3.63;;;27.70;97.70;;;;;;4861765;29;20238;-76
2022/05/16 08:57:18;;;;;;;9.95;3.70;;;27.60;98.10;;;;;;4861169;29;20260;-76
2022/05/16 08:59:53;;;;;;;6.40;3.05;;;28.00;97.40;;;;;;4861634;29;20431;-74
2022/05/16 09:02:25;;;;;;;3.67;2.50;;;27.80;95.50;;;;;;4861493;29;20286;-76
2022/05/16 09:05:03;;;;;;;6.03;2.60;;;27.50;94.40;;;;;;4860975;29;20223;-76
2022/05/16 09:07:38;;;;;;;9.57;2.78;;;26.70;95.70;;;;;;4861509;29;20190;-76
2022/05/16 09:10:11;;;;;;;7.07;2.60;;;26.10;97.70;;;;;;4863307;29;20271;-75
2022/05/16 09:12:51;;;;;;;6.27;3.10;;;25.70;99.20;;;;;;4861468;29;20242;-78
2022/05/16 09:15:33;;;;;;;7.33;2.73;;;25.40;99.50;;;;;;4857739;29;20692;-80
2022/05/16 09:18:26;;;;;;;10.63;3.27;;;24.90;99.90;;;;;;4875851;29;20659;-77
2022/05/16 09:21:03;;;;;;;8.13;2.97;;;24.80;99.90;;;;;;4875869;29;20208;-80
2022/05/16 09:23:45;;;;;;;4.23;2.70;;;24.60;99.90;;;;;;4861253;29;20269;-77
2022/05/16 09:26:25;;;;;;;8.17;3.10;;;24.40;99.90;;;;;;4845606;29;20221;-78
2022/05/16 09:28:59;;;;;;;6.63;3.07;;;24.20;99.90;;;;;;4842636;29;20273;-77
2022/05/16 09:31:31;;;;;;;6.33;3.20;;;24.20;99.90;;;;;;4842881;29;20200;-76
2022/05/16 09:34:01;;;;;;;3.87;2.53;;;24.30;99.90;;;;;;4842541;29;20229;-75
2022/05/16 09:36:33;;;;;;;3.70;2.63;;;24.70;99.90;;;;;;4842952;29;20211;-80
2022/05/16 09:39:05;;;;;;;4.93;2.40;;;24.80;99.90;;;;;;4841704;29;20876;-77
2022/05/16 09:41:46;;;;;;;4.60;2.40;;;25.20;99.90;;;;;;4843282;29;20291;-78
2022/05/16 09:44:23;;;;;;;3.50;2.10;;;25.10;99.90;;;;;;4842838;29;20324;-76
2022/05/16 09:47:12;;;;;;;3.87;1.80;;;24.50;99.90;;;;;;4843032;29;20247;-76
2022/05/16 09:49:41;;;;;;;4.40;1.90;;;24.00;99.90;;;;;;4843125;29;20262;-73
2022/05/16 09:52:16;;;;;;;3.00;1.63;;;23.60;99.90;;;;;;4860825;29;20742;-76
2022/05/16 09:55:00;;;;;;;8.43;1.80;;;23.20;99.90;;;;;;4861377;29;20301;-77
2022/05/16 09:57:29;;;;;;;3.43;1.57;;;22.90;99.90;;;;;;4861352;29;20273;-78
2022/05/16 10:00:15;;;;;;;4.37;1.83;;;22.80;99.90;;;;;;4859602;29;20257;-78
2022/05/16 10:02:53;;;;;;;4.47;1.87;;;22.80;99.90;;;;;;4860407;29;20237;-77
2022/05/16 10:05:26;;;;;;;4.80;1.73;;;22.90;99.90;;;;;;4860820;29;20221;-75
2022/05/16 10:08:01;;;;;;;2.73;1.53;;;23.00;99.90;;;;;;4861042;29;20195;-77
2022/05/16 10:10:36;;;;;;;2.77;1.83;;;23.10;99.90;;;;;;4865716;29;20229;-77
2022/05/16 10:13:06;;;;;;;3.53;1.60;;;23.10;99.90;;;;;;4872402;29;20350;-73
2022/05/16 10:15:36;;;;;;;3.80;2.00;;;23.00;99.90;;;;;;4873146;29;20258;-80
2022/05/16 10:18:09;;;;;;;2.77;2.00;;;23.10;99.90;;;;;;4842612;29;20645;-75
2022/05/16 10:20:40;;;;;;;5.13;2.03;;;23.20;99.90;;;;;;4841803;29;20216;-74
2022/05/16 10:23:14;;;;;;;3.40;2.03;;;23.30;99.90;;;;;;4842157;29;20295;-76
2022/05/16 10:25:48;;;;;;;3.97;1.80;;;23.30;99.90;;;;;;4841710;29;20306;-76
2022/05/16 10:28:21;;;;;;;3.90;1.90;;;23.10;99.90;;;;;;4842021;29;20278;-75
2022/05/16 10:33:38;;;;;;;5.37;2.33;;;22.60;99.90;;;;;;4851684;29;20218;-74
2022/05/16 10:36:12;;;;;;;3.00;1.80;;;22.50;99.90;;;;;;4859953;29;20643;-76
2022/05/16 10:38:46;;;;;;;2.27;1.77;;;22.40;99.90;;;;;;4859313;29;20637;-76
2022/05/16 10:41:22;;;;;;;2.60;1.83;;;22.40;99.90;;;;;;4859629;29;20235;-77
2022/05/16 10:44:00;;;;;;;2.87;1.60;;;22.40;99.90;;;;;;4860248;29;20335;-78
2022/05/16 10:46:34;;;;;;;3.83;1.80;;;22.30;99.90;;;;;;4860229;29;20264;-75
2022/05/16 10:49:06;;;;;;;4.70;2.13;;;22.00;99.90;;;;;;4859366;29;20251;-75
2022/05/16 10:51:40;;;;;;;6.27;2.00;;;21.90;99.90;;;;;;4859584;29;20279;-76
2022/05/16 10:54:14;;;;;;;2.80;1.80;;;21.90;99.90;;;;;;4860605;29;20227;-74
2022/05/16 10:56:56;;;;;;;3.03;1.83;;;21.90;99.90;;;;;;4862089;29;20219;-76
2022/05/16 10:59:34;;;;;;;3.00;1.80;;;21.90;99.90;;;;;;4841466;29;20243;-78
2022/05/16 11:02:08;;;;;;;3.40;2.20;;;22.00;99.90;;;;;;4841238;29;20633;-75
2022/05/16 11:04:57;;;;;;;2.97;1.73;;;22.20;99.90;;;;;;4840596;29;20234;-75
2022/05/16 11:07:35;;;;;;;5.77;2.20;;;22.40;99.90;;;;;;4841789;29;20223;-75
2022/05/16 11:10:09;;;;;;;5.30;2.27;;;22.40;99.90;;;;;;4849599;29;20263;-76
2022/05/16 11:12:47;;;;;;;2.67;2.00;;;22.40;99.90;;;;;;4870421;29;20241;-76
2022/05/16 11:15:27;;;;;;;2.57;1.80;;;22.30;99.90;;;;;;4877868;29;20279;-77
2022/05/16 11:18:02;;;;;;;4.73;2.30;;;22.30;99.90;;;;;;4840906;29;20216;-76
2022/05/16 11:20:36;;;;;;;3.33;2.03;;;22.40;99.90;;;;;;4841530;29;20195;-76
2022/05/16 11:23:18;;;;;;;4.70;2.07;;;22.50;99.90;;;;;;4841116;29;20581;-78
2022/05/16 11:25:52;;;;;;;5.80;2.00;;;22.60;99.90;;;;;;4841295;29;20303;-74
2022/05/16 11:28:32;;;;;;;5.97;2.13;;;22.40;99.90;;;;;;4840787;29;20259;-76
2022/05/16 11:31:04;;;;;;;6.30;2.10;;;22.40;99.90;;;;;;4841210;29;20268;-76
2022/05/16 11:33:40;;;;;;;4.30;2.10;;;22.20;99.90;;;;;;4841053;29;20681;-76
2022/05/16 11:36:19;;;;;;;5.10;2.30;;;22.00;99.90;;;;;;4840939;29;20286;-75
2022/05/16 11:39:05;;;;;;;4.23;2.07;;;21.80;99.90;;;;;;4856041;29;20242;-73
2022/05/16 11:41:54;;;;;;;5.53;2.40;;;21.70;99.90;;;;;;4847968;29;20295;-74
2022/05/16 11:44:32;;;;;;;5.67;2.17;;;21.50;99.90;;;;;;4841228;29;20712;-75
2022/05/16 11:47:10;;;;;;;7.17;2.20;;;21.40;99.90;;;;;;4843510;29;20290;-77
2022/05/16 11:50:16;;;;;;;4.83;2.10;;;21.20;99.90;;;;;;4866322;29;20207;-78
2022/05/16 11:53:42;;;;;;;5.20;2.30;;;21.10;99.90;;;;;;4857557;29;20219;-76
2022/05/16 12:02:17;;;;;;;5.37;2.30;;;21.10;99.90;;;;;;4870871;29;20215;-74
2022/05/16 12:04:49;;;;;;;3.77;2.10;;;21.40;99.90;;;;;;4853650;29;20223;-75
2022/05/16 12:07:25;;;;;;;2.57;1.80;;;21.50;99.90;;;;;;4863334;29;20223;-75
2022/05/16 12:09:57;;;;;;;3.60;2.20;;;21.60;99.90;;;;;;4877787;29;20215;-77
2022/05/16 12:12:36;;;;;;;2.73;2.00;;;21.50;99.90;;;;;;4883248;29;20218;-74
2022/05/16 12:15:34;;;;;;;2.43;2.00;;;21.30;99.90;;;;;;4870257;29;20215;-75
2022/05/16 12:18:06;;;;;;;4.40;2.30;;;21.20;99.90;;;;;;4859648;29;20208;-72
2022/05/16 12:20:38;;;;;;;3.73;2.17;;;21.00;99.90;;;;;;4844077;29;20303;-76
2022/05/16 12:23:08;;;;;;;3.50;2.17;;;21.00;99.90;;;;;;4857082;29;20211;-77
2022/05/16 12:25:42;;;;;;;2.93;1.93;;;20.80;99.90;;;;;;4862949;29;20209;-76
2022/05/16 12:28:24;;;;;;;4.40;2.13;;;20.80;99.90;;;;;;4862782;29;20696;-74
2022/05/16 12:30:54;;;;;;;3.10;1.80;;;21.10;99.90;;;;;;4861615;29;20290;-77
2022/05/16 12:33:50;;;;;;;3.17;1.73;;;21.40;99.90;;;;;;4867856;29;20226;-77
2022/05/16 12:36:20;;;;;;;5.00;1.90;;;21.60;99.90;;;;;;4872752;29;20309;-76
2022/05/16 12:38:55;;;;;;;2.30;1.80;;;21.80;99.90;;;;;;4862263;29;20334;-76
2022/05/16 12:41:51;;;;;;;3.87;1.70;;;22.00;99.90;;;;;;4856461;29;20210;-76
2022/05/16 12:44:48;;;;;;;2.00;1.80;;;22.20;99.90;;;;;;4843624;29;20262;-76
2022/05/16 12:47:52;;;;;;;2.93;2.00;;;22.60;99.90;;;;;;4858156;29;20306;-77
2022/05/16 12:51:00;;;;;;;3.37;1.97;;;22.70;99.90;;;;;;4861063;29;20226;-76
2022/05/16 12:54:04;;;;;;;3.17;1.80;;;23.20;99.90;;;;;;4869632;29;20712;-78
2022/05/16 12:56:41;;;;;;;4.00;1.77;;;23.50;99.90;;;;;;4862065;29;20317;-76
2022/05/16 12:59:23;;;;;;;2.03;1.70;;;23.80;99.90;;;;;;4861837;29;20690;-76
2022/05/16 13:01:56;;;;;;;2.43;1.60;;;23.80;99.90;;;;;;4860056;29;20294;-76
2022/05/16 13:04:41;;;;;;;3.10;1.70;;;23.90;99.90;;;;;;4861487;29;20263;-76
2022/05/16 13:07:19;;;;;;;3.20;1.70;;;24.00;99.90;;;;;;4846377;29;20298;-74
2022/05/16 13:09:58;;;;;;;2.07;1.70;;;24.20;99.90;;;;;;4847007;29;20404;-75
2022/05/16 13:12:43;;;;;;;1.83;1.60;;;24.60;99.90;;;;;;4847243;29;20215;-76
2022/05/16 13:15:15;;;;;;;3.40;1.87;;;24.50;99.90;;;;;;4842827;29;20196;-74
2022/05/16 13:17:49;;;;;;;2.67;1.80;;;24.80;99.90;;;;;;4842298;29;20235;-77
2022/05/16 13:20:20;;;;;;;3.73;1.70;;;24.80;99.90;;;;;;4842667;29;20230;-77
2022/05/16 13:22:52;;;;;;;4.27;1.70;;;25.00;99.90;;;;;;4843166;29;20226;-78
2022/05/16 13:25:22;;;;;;;3.70;1.87;;;24.70;99.90;;;;;;4842665;29;20207;-74
2022/05/16 13:30:37;;;;;;;1.90;1.50;;;24.60;99.90;;;;;;4842158;29;20207;-75
2022/05/16 13:33:08;;;;;;;2.97;1.70;;;24.70;99.90;;;;;;4859705;29;20210;-76
2022/05/16 13:35:40;;;;;;;3.53;1.87;;;24.90;99.90;;;;;;4874217;29;20237;-76
2022/05/16 13:38:10;;;;;;;4.43;1.60;;;24.90;99.90;;;;;;4879628;29;20218;-75
2022/05/16 13:40:41;;;;;;;3.47;2.00;;;25.20;99.90;;;;;;4857006;29;20235;-77
2022/05/16 13:43:14;;;;;;;3.23;1.90;;;24.90;99.90;;;;;;4866945;29;20575;-77
2022/05/16 13:45:43;;;;;;;5.73;2.10;;;24.30;99.90;;;;;;4861589;29;20307;-77
2022/05/16 13:48:15;;;;;;;3.63;1.87;;;24.30;99.90;;;;;;4860854;29;20705;-75
2022/05/16 13:50:44;;;;;;;2.17;1.70;;;24.50;99.90;;;;;;4860040;29;20650;-76
2022/05/16 13:53:18;;;;;;;3.63;2.00;;;24.40;99.90;;;;;;4843408;29;20239;-75
2022/05/16 13:55:50;;;;;;;4.10;1.70;;;24.60;99.90;;;;;;4842192;29;20235;-77
2022/05/16 13:58:19;;;;;;;3.63;1.90;;;24.80;99.90;;;;;;4857762;29;20661;-75
2022/05/16 14:00:49;;;;;;;2.63;1.80;;;24.90;99.90;;;;;;4859942;29;20811;-76
2022/05/16 14:03:29;;;;;;;5.57;2.00;;;25.00;99.90;;;;;;4855478;29;20241;-76
2022/05/16 14:05:57;;;;;;;3.17;1.87;;;25.10;99.90;;;;;;4862261;29;20215;-77
2022/05/16 14:08:35;;;;;;;3.80;1.90;;;25.00;99.90;;;;;;4860172;29;20243;-76
2022/05/16 14:11:05;;;;;;;4.00;2.00;;;25.20;99.90;;;;;;4845865;29;20318;-75
2022/05/16 14:13:38;;;;;;;3.63;2.10;;;25.30;99.90;;;;;;4842192;29;20226;-74
2022/05/16 14:16:12;;;;;;;3.43;2.00;;;25.20;99.90;;;;;;4841826;29;20207;-76
2022/05/16 14:18:47;;;;;;;2.57;2.07;;;25.40;99.90;;;;;;4841611;29;20314;-75
2022/05/16 14:21:18;;;;;;;3.07;2.10;;;25.20;99.90;;;;;;4841555;29;20302;-74
2022/05/16 14:23:58;;;;;;;3.00;2.10;;;25.20;99.90;;;;;;4842051;29;20268;-75
2022/05/16 14:26:29;;;;;;;3.73;2.20;;;25.20;99.90;;;;;;4841699;29;20223;-76
2022/05/16 14:29:13;;;;;;;3.70;2.07;;;25.20;99.90;;;;;;4842059;29;20215;-75
2022/05/16 14:31:44;;;;;;;4.57;2.23;;;25.20;99.90;;;;;;4848569;29;20660;-75
2022/05/16 14:34:28;;;;;;;3.80;2.17;;;25.20;99.90;;;;;;4872343;29;20657;-75
2022/05/16 14:37:04;;;;;;;5.40;2.50;;;25.40;99.90;;;;;;4879042;29;20230;-76
2022/05/16 14:39:42;;;;;;;2.87;2.20;;;25.30;99.90;;;;;;4878704;29;20296;-76
2022/05/16 14:42:14;;;;;;;3.47;2.20;;;25.60;99.90;;;;;;4860772;29;20211;-73
2022/05/16 14:44:54;;;;;;;3.83;2.33;;;25.40;99.90;;;;;;4860170;29;20243;-77
2022/05/16 14:47:27;;;;;;;3.47;2.17;;;25.40;99.90;;;;;;4844957;29;20603;-74
2022/05/16 14:49:55;;;;;;;3.03;2.30;;;24.90;99.90;;;;;;4841300;29;20709;-77
2022/05/16 14:52:26;;;;;;;3.63;2.20;;;24.60;99.90;;;;;;4849662;29;20618;-76
2022/05/16 14:55:05;;;;;;;4.40;2.30;;;24.80;99.90;;;;;;4870245;29;20294;-77
2022/05/16 14:57:34;;;;;;;4.70;2.53;;;25.00;99.90;;;;;;4878574;29;20213;-75
2022/05/16 15:05:43;;;;;;;3.43;2.27;;;24.50;99.90;;;;;;4851842;29;20257;-77
2022/05/16 15:08:15;;;;;;;4.10;2.53;;;24.40;99.90;;;;;;4859181;29;20242;-79
2022/05/16 15:10:45;;;;;;;5.40;2.43;;;24.30;99.90;;;;;;4850317;29;20287;-73
2022/05/16 15:13:14;;;;;;;4.30;2.50;;;24.10;99.90;;;;;;4846711;29;20207;-77
2022/05/16 15:15:42;;;;;;;4.53;2.70;;;23.90;99.90;;;;;;4859640;29;20225;-75
2022/05/16 15:18:11;;;;;;;4.33;2.70;;;23.70;99.90;;;;;;4856582;29;20231;-78
2022/05/16 15:20:40;;;;;;;5.17;2.67;;;23.40;99.90;;;;;;4841160;29;20236;-76
2022/05/16 15:23:11;;;;;;;4.40;2.10;;;23.10;99.90;;;;;;4855838;29;20303;-77
2022/05/16 15:25:39;;;;;;;8.10;2.07;;;22.50;99.90;;;;;;4859499;29;20631;-75
2022/05/16 15:28:09;;;;;;;5.90;1.80;;;22.00;99.90;;;;;;4857505;29;20255;-76
2022/05/16 15:30:37;;;;;;;4.80;1.90;;;21.40;99.90;;;;;;4841105;29;20658;-79
2022/05/16 15:33:05;;;;;;;6.53;2.07;;;20.90;99.90;;;;;;4841170;29;20333;-76
2022/05/16 15:35:34;;;;;;;9.77;2.70;;;20.40;99.90;;;;;;4841686;29;20302;-75
2022/05/16 15:38:03;;;;;;;7.53;2.67;;;19.80;99.90;;;;;;4845668;29;20211;-75
2022/05/16 15:40:31;;;;;;;7.20;2.50;;;19.20;99.90;;;;;;4867951;29;20298;-76
2022/05/16 15:43:00;;;;;;;11.43;3.50;;;18.80;99.90;;;;;;4863150;29;20215;-74
2022/05/16 15:45:30;;;;;;;13.43;3.33;;;18.30;99.90;;;;;;4862881;29;20302;-77
2022/05/16 15:47:58;;;;;;;8.97;3.60;;;17.90;99.90;;;;;;4863744;29;20646;-79
2022/05/16 15:50:29;;;;;;;12.30;3.80;;;17.50;99.90;;;;;;4850362;29;20212;-77
2022/05/16 15:52:58;;;;;;;9.77;3.40;;;17.10;99.90;;;;;;4846139;29;20607;-79
2022/05/16 15:55:27;;;;;;;8.37;3.50;;;16.90;99.90;;;;;;4847490;29;20581;-77
2022/05/16 15:57:55;;;;;;;7.43;3.60;;;16.70;99.90;;;;;;4848028;29;20220;-77
2022/05/16 16:00:26;;;;;;;8.33;3.40;;;16.60;99.90;;;;;;4872916;29;20234;-79
2022/05/16 16:02:57;;;;;;;10.63;3.67;;;16.40;99.90;;;;;;4866427;29;20199;-78
2022/05/16 16:11:01;;;;;;;11.97;3.83;;;16.10;99.90;;;;;;4865464;29;20638;-77
2022/05/16 16:13:30;;;;;;;9.37;3.67;;;16.00;99.90;;;;;;4862740;29;20218;-77
2022/05/16 16:16:01;;;;;;;7.20;3.57;;;16.00;99.90;;;;;;4846433;29;20276;-75
2022/05/16 16:18:31;;;;;;;10.17;4.17;;;15.90;99.90;;;;;;4845018;29;20196;-74
2022/05/16 16:20:59;;;;;;;10.03;3.97;;;16.00;99.90;;;;;;4844660;29;20236;-76
2022/05/16 16:23:29;;;;;;;11.30;3.77;;;16.10;99.90;;;;;;4845270;29;20238;-77
2022/05/16 16:25:58;;;;;;;9.33;3.10;;;16.30;99.90;;;;;;4845250;29;20204;-75
2022/05/16 16:28:26;;;;;;;7.30;3.40;;;16.60;99.90;;;;;;4846404;29;20219;-73
2022/05/16 16:30:56;;;;;;;6.47;3.60;;;16.90;99.90;;;;;;4846271;29;20647;-76
2022/05/16 16:33:34;;;;;;;8.57;3.80;;;17.10;99.90;;;;;;4864995;29;20207;-75
2022/05/16 16:36:03;;;;;;;10.77;3.43;;;17.20;99.90;;;;;;4880188;29;20268;-79
2022/05/16 16:38:31;;;;;;;8.00;3.60;;;17.40;99.90;;;;;;4881249;29;20210;-76
2022/05/16 16:41:02;;;;;;;8.17;3.60;;;17.40;99.90;;;;;;4869050;29;20235;-77
2022/05/16 16:43:34;;;;;;;9.23;3.70;;;17.50;99.90;;;;;;4843587;29;20256;-78
2022/05/16 16:46:05;;;;;;;9.47;3.57;;;17.60;99.90;;;;;;4843769;29;20211;-78
2022/05/16 16:48:34;;;;;;;8.63;3.47;;;17.80;99.90;;;;;;4858659;29;20207;-77
2022/05/16 16:57:27;;;;;;;8.27;3.27;;;17.80;99.90;;;;;;4860188;29;20326;-77
2022/05/16 16:59:25;;;;;;;8.77;3.57;;;17.90;99.90;;;;;;4852546;29;20294;-79
2022/05/16 17:01:54;;;;;;;9.60;3.53;;;18.00;99.90;;;;;;4853549;29;20255;-78
2022/05/16 17:04:24;;;;;;;9.30;3.30;;;17.90;99.90;;;;;;4849163;29;20582;-78
2022/05/16 17:06:53;;;;;;;5.30;2.80;;;17.90;99.90;;;;;;4861686;29;20349;-76
2022/05/16 17:09:21;;;;;;;8.10;3.43;;;17.90;99.90;;;;;;4859738;29;20748;-77
2022/05/16 17:11:49;;;;;;;10.23;2.93;;;17.90;99.90;;;;;;4846420;29;20729;-75
2022/05/16 17:14:18;;;;;;;8.93;3.27;;;17.90;99.90;;;;;;4859806;29;20214;-76
2022/05/16 17:16:46;;;;;;;10.63;3.30;;;17.90;99.90;;;;;;4862345;29;20805;-76
2022/05/16 17:19:15;;;;;;;10.10;3.60;;;17.80;99.90;;;;;;4862411;29;20297;-77
2022/05/16 17:21:44;;;;;;;13.23;3.70;;;17.70;99.90;;;;;;4857032;29;20235;-74
2022/05/16 17:24:12;;;;;;;9.93;3.70;;;17.70;99.90;;;;;;4860800;29;20219;-76
2022/05/16 17:26:40;;;;;;;8.17;3.43;;;17.60;99.90;;;;;;4862921;29;20242;-78
2022/05/16 17:29:09;;;;;;;12.33;3.30;;;17.60;99.90;;;;;;4879077;29;20297;-78
2022/05/16 17:31:40;;;;;;;8.50;3.27;;;17.50;99.90;;;;;;4858788;29;20239;-73
2022/05/16 17:34:09;;;;;;;12.30;3.80;;;17.50;99.90;;;;;;4842522;29;20215;-77
2022/05/16 17:36:37;;;;;;;7.33;3.53;;;17.40;99.90;;;;;;4842322;29;20679;-77
2022/05/16 17:39:08;;;;;;;10.20;3.90;;;17.40;99.90;;;;;;4848336;29;20250;-78
2022/05/16 17:41:45;;;;;;;10.13;4.30;;;17.30;99.90;;;;;;4861051;29;20306;-77
2022/05/16 17:44:17;;;;;;;9.83;4.33;;;17.10;99.90;;;;;;4860789;29;20250;-77
2022/05/16 17:46:45;;;;;;;9.27;3.97;;;17.10;99.90;;;;;;4866959;29;20231;-75
2022/05/16 17:49:14;;;;;;;9.77;4.20;;;17.00;99.90;;;;;;4867171;29;20222;-76
2022/05/16 17:51:45;;;;;;;10.07;3.77;;;16.90;99.90;;;;;;4842154;29;20293;-78
2022/05/16 17:54:17;;;;;;;8.77;4.20;;;16.80;99.90;;;;;;4842856;29;20253;-77
2022/05/16 17:56:45;;;;;;;8.13;3.50;;;16.80;99.90;;;;;;4841874;29;20251;-76
2022/05/16 17:59:14;;;;;;;9.87;4.23;;;16.70;99.90;;;;;;4842054;29;20228;-78
2022/05/16 18:01:43;;;;;;;7.60;4.23;;;16.70;99.90;;;;;;4842086;29;20323;-76
2022/05/16 18:04:13;;;;;;;9.83;4.50;;;16.80;99.90;;;;;;4842195;29;20223;-76